METAR AND TAF INFORMATION
METAR FOR LGKR
ADDS - METARS form results

(0638 UTC 17 October 2021)
Data provider http://aviationweather.gov/metar/data/
 
METAR text: LGKR 170620Z 00000KT 9999 FEW020 SCT025 BKN080 16/14 Q1015 NOSIG
Conditions at: LGKR (IOANNIS KAPODIST, GR) observed 0620 UTC 17 October 2021
Temperature: 16.0°C (61°F)
Dewpoint: 14.0°C (57°F) [RH = 88%]
Pressure (altimeter): 29.97 inches Hg (1015.0 mb)
Winds: calm
Visibility: 6 or more miles (10+ km)
Ceiling: 8000 feet AGL
Clouds: few clouds at 2000 feet AGL
scattered clouds at 2500 feet AGL
broken clouds at 8000 feet AGL
Weather: no significant weather observed at this time

METAR text: LGKR 170550Z 00000KT 9999 FEW020 SCT025 BKN080 15/13 Q1015 NOSIG
Conditions at: LGKR (IOANNIS KAPODIST, GR) observed 0550 UTC 17 October 2021
Temperature: 15.0°C (59°F)
Dewpoint: 13.0°C (55°F) [RH = 88%]
Pressure (altimeter): 29.97 inches Hg (1015.0 mb)
Winds: calm
Visibility: 6 or more miles (10+ km)
Ceiling: 8000 feet AGL
Clouds: few clouds at 2000 feet AGL
scattered clouds at 2500 feet AGL
broken clouds at 8000 feet AGL
Weather: no significant weather observed at this time

Forecast for: LGKR (IOANNIS KAPODIST, GR)
Text: TAF LGKR 170500Z 1706/1806 VRB05KT 9999 SCT020 SCT080
Forecast period: 0600 UTC 17 October 2021 to 0600 UTC 18 October 2021
Forecast type: FROM: standard forecast or significant change
Winds: variable direction winds at 6 MPH (5 knots; 2.6 m/s)
Visibility: 6 or more miles (10+ km)
Ceiling: at least 12,000 feet AGL
Clouds: scattered clouds at 2000 feet AGL
scattered clouds at 8000 feet AGL
Weather: no significant weather forecast for this period
Text: PROB30
Forecast period: 0600 to 1500 UTC 17 October 2021
Forecast type: TEMPORARY: The following changes expected for less than half the time period
Visibility: 3 miles (5 km)
Ceiling: 2000 feet AGL
Clouds: few clouds at 1800 feet AGL
broken clouds at 2000 feet AGL
broken clouds at 8000 feet AGL
Weather: RA  (moderate rain)

 AIRPORT MAP

 RUNWAY INFORMATION
Runway 17 Runway length 7792 ft Runway width 148 ft
Runway elevation 5 ft Runway displaced threshold 1348 ft Runway heading 169
Runway 35 Runway length 7792 ft Runway width 148 ft
Runway elevation 5 ft Runway displaced threshold 213 ft Runway heading 349

 AIRPORT FREQUENCIES
Type A/G Name KERKIRA RD Frequency 563.7 MHZ
Type APP Name KERKIRA AP Frequency 118.075 MHZ
Type ATIS Name ATIS Frequency 126.35 MHZ
Type TWR Name KERKIRA TW Frequency 120.85 MHZ

 AIRPORT NEAR NAVIGATION AIDS
Type VOR-DME Name Garitsa Frequency 108800 KHZ
Type NDB Name Kerkira Frequency 403 KHZ
Type VOR-DME Name Kerkira Frequency 114700 KHZ



Datenschutz / Privacy Policy • Impressum / Imprint • Disclaimer

Powered by Virtual Airlines Manager [v2.6.2]